createdAt,value
2019-04-22T00:02:11.897Z,53.47
2019-04-22T00:04:52.532Z,53.79
2019-04-22T00:07:36.197Z,53.76
2019-04-22T00:10:09.186Z,53.73
2019-04-22T00:12:45.505Z,53.73
2019-04-22T00:15:03.728Z,53.95
2019-04-22T00:20:10.159Z,54.07
2019-04-22T00:22:40.208Z,54.31
2019-04-22T00:25:11.845Z,54.21
2019-04-22T00:27:41.478Z,54.48
2019-04-22T00:32:45.084Z,54.70
2019-04-22T00:35:14.758Z,54.85
2019-04-22T00:37:54.842Z,54.97
2019-04-22T00:40:23.829Z,54.93
2019-04-22T00:42:47.184Z,55.04
2019-04-22T00:45:19.363Z,55.02
2019-04-22T00:47:44.834Z,55.02
2019-04-22T00:52:50.816Z,55.33
2019-04-22T00:55:22.002Z,55.45
2019-04-22T00:57:54.196Z,55.60
2019-04-22T01:00:24.736Z,55.71
2019-04-22T01:02:54.404Z,55.62
2019-04-22T01:05:28.899Z,55.83
2019-04-22T01:08:04.075Z,56.05
2019-04-22T01:10:27.445Z,56.09
2019-04-22T01:12:49.921Z,56.11
2019-04-22T01:15:30.503Z,56.24
2019-04-22T01:18:00.136Z,56.27
2019-04-22T01:22:59.054Z,56.47
2019-04-22T01:25:24.442Z,56.53
2019-04-22T01:27:54.420Z,56.57
2019-04-22T01:30:22.154Z,56.76
2019-04-22T01:32:44.870Z,56.79
2019-04-22T01:35:26.297Z,56.87
2019-04-22T01:37:54.676Z,57.04
2019-04-22T01:40:39.362Z,57.02
2019-04-22T01:43:07.336Z,57.25
2019-04-22T01:45:39.408Z,57.19
2019-04-22T01:48:10.529Z,57.35
2019-04-22T01:50:38.483Z,57.45
2019-04-22T01:53:27.370Z,57.83
2019-04-22T01:58:08.410Z,58.13
2019-04-22T02:00:49.436Z,58.18
2019-04-22T02:03:14.100Z,58.50
2019-04-22T02:05:43.846Z,58.56
2019-04-22T02:08:25.576Z,58.83
2019-04-22T02:10:53.079Z,58.78
2019-04-22T02:13:15.284Z,59.02
2019-04-22T02:15:48.019Z,59.20
2019-04-22T02:18:23.158Z,59.25
2019-04-22T02:20:42.939Z,59.18
2019-04-22T02:26:02.447Z,59.18
2019-04-22T02:28:36.626Z,59.27
2019-04-22T02:31:23.108Z,59.37
2019-04-22T02:38:57.419Z,59.50
2019-04-22T02:43:56.910Z,59.65
2019-04-22T02:48:53.819Z,59.83
2019-04-22T02:56:22.959Z,60.15
2019-04-22T03:01:27.498Z,60.49
2019-04-22T03:08:51.236Z,60.69
2019-04-22T03:11:25.222Z,60.69
2019-04-22T03:13:56.826Z,60.85
2019-04-22T03:23:58.646Z,61.10
2019-04-22T03:32:03.948Z,61.30
2019-04-22T03:34:42.225Z,61.52
2019-04-22T03:37:04.408Z,61.47
2019-04-22T03:39:20.352Z,61.54
2019-04-22T03:42:03.550Z,61.69
2019-04-22T03:44:20.738Z,61.86
2019-04-22T03:46:30.384Z,61.80
2019-04-22T03:49:17.430Z,61.86
2019-04-22T03:54:17.481Z,62.02
2019-04-22T03:57:07.215Z,61.94
2019-04-22T03:59:22.125Z,62.02
2019-04-22T04:04:18.643Z,62.16
2019-04-22T04:06:54.608Z,62.14
2019-04-22T04:09:14.345Z,62.18
2019-04-22T04:11:55.822Z,62.27
2019-04-22T04:14:18.225Z,62.29
2019-04-22T04:29:27.952Z,62.78
2019-04-22T04:31:40.980Z,62.62
2019-04-22T04:34:19.675Z,62.72
2019-04-22T04:36:55.277Z,62.61
2019-04-22T04:41:51.892Z,62.68
2019-04-22T04:44:48.300Z,62.54
2019-04-22T04:46:51.759Z,62.57
2019-04-22T04:49:19.411Z,62.66
2019-04-22T04:54:21.411Z,62.41
2019-04-22T05:06:51.690Z,62.38
2019-04-22T05:12:19.513Z,62.26
2019-04-22T05:14:24.599Z,62.15
2019-04-22T05:19:24.053Z,62.00
2019-04-22T05:21:53.471Z,62.11
2019-04-22T05:24:22.780Z,61.70
2019-04-22T05:26:58.691Z,61.51
2019-04-22T05:29:19.722Z,61.30
2019-04-22T05:31:51.765Z,60.97
2019-04-22T05:34:26.430Z,59.75
2019-04-22T05:39:17.140Z,56.52
2019-04-22T05:41:48.731Z,54.59
2019-04-22T05:44:24.582Z,52.66
2019-04-22T05:46:49.912Z,51.19
2019-04-22T05:49:23.799Z,49.52
2019-04-22T05:51:48.138Z,48.15
2019-04-22T05:54:25.241Z,46.88
2019-04-22T05:56:42.896Z,45.74
2019-04-22T05:59:24.358Z,44.88
2019-04-22T06:01:59.712Z,44.30
2019-04-22T06:04:23.619Z,43.27
2019-04-22T06:06:53.852Z,42.48
2019-04-22T06:09:28.785Z,41.93
2019-04-22T06:11:58.892Z,41.40
2019-04-22T06:14:30.844Z,40.42
2019-04-22T06:17:11.079Z,39.93
2019-04-22T06:19:44.911Z,39.38
2019-04-22T06:22:26.841Z,39.20
2019-04-22T06:24:43.760Z,38.59
2019-04-22T06:27:21.994Z,38.09
2019-04-22T06:29:41.764Z,37.71
2019-04-22T06:34:48.736Z,37.13
2019-04-22T06:37:17.475Z,37.07
2019-04-22T06:39:44.873Z,36.80
2019-04-22T06:42:21.534Z,36.26
2019-04-22T06:44:51.597Z,36.20
2019-04-22T06:47:28.673Z,36.06
2019-04-22T06:49:53.078Z,35.67
2019-04-22T06:52:19.685Z,35.46
2019-04-22T06:54:57.442Z,35.45
2019-04-22T06:57:24.248Z,35.44
2019-04-22T06:59:52.009Z,35.50
2019-04-22T07:02:36.094Z,35.11
2019-04-22T07:04:59.581Z,34.76
2019-04-22T07:07:25.199Z,34.41
2019-04-22T07:10:11.685Z,34.44
2019-04-22T07:12:31.931Z,34.73
2019-04-22T07:15:16.195Z,34.43
2019-04-22T07:17:44.046Z,34.51
2019-04-22T07:20:13.987Z,34.40
2019-04-22T07:22:43.648Z,34.44
2019-04-22T07:25:10.483Z,34.08
2019-04-22T07:27:45.793Z,33.77
2019-04-22T07:33:04.242Z,33.62
2019-04-22T07:35:23.906Z,33.09
2019-04-22T07:37:48.573Z,32.68
2019-04-22T07:40:27.035Z,32.71
2019-04-22T07:42:59.206Z,32.29
2019-04-22T07:45:29.556Z,32.25
2019-04-22T07:48:09.580Z,32.58
2019-04-22T07:50:43.005Z,32.62
2019-04-22T07:52:58.104Z,32.26
2019-04-22T07:55:32.587Z,31.93
2019-04-22T07:58:07.851Z,32.00
2019-04-22T08:00:34.131Z,31.43
2019-04-22T08:03:14.583Z,31.10
2019-04-22T08:05:47.599Z,30.87
2019-04-22T08:08:16.068Z,31.10
2019-04-22T08:10:43.069Z,30.68
2019-04-22T08:13:11.861Z,30.52
2019-04-22T08:15:45.457Z,30.83
2019-04-22T08:18:27.668Z,30.39
2019-04-22T08:20:41.011Z,30.00
2019-04-22T08:23:16.390Z,30.03
2019-04-22T08:25:42.615Z,29.51
2019-04-22T08:28:23.606Z,29.75
2019-04-22T08:30:47.732Z,29.79
2019-04-22T08:33:23.313Z,29.78
2019-04-22T08:36:04.268Z,30.30
2019-04-22T08:38:14.893Z,30.11
2019-04-22T08:41:23.151Z,29.37
2019-04-22T08:43:55.873Z,29.37
2019-04-22T08:46:24.139Z,29.51
2019-04-22T08:48:52.864Z,29.01
2019-04-22T08:51:21.073Z,28.36
2019-04-22T08:53:56.178Z,28.35
2019-04-22T08:58:51.098Z,28.22
2019-04-22T09:01:17.727Z,28.46
2019-04-22T09:03:52.681Z,28.62
2019-04-22T09:06:34.155Z,28.88
2019-04-22T09:11:26.978Z,28.96
2019-04-22T09:13:55.862Z,28.48
2019-04-22T09:16:33.272Z,28.50
2019-04-22T09:24:00.429Z,28.01
2019-04-22T09:26:34.066Z,27.70
2019-04-22T09:29:00.838Z,28.24
2019-04-22T09:31:23.802Z,28.22
2019-04-22T09:33:54.307Z,27.41
2019-04-22T09:36:34.011Z,28.58
2019-04-22T09:39:19.469Z,28.24
2019-04-22T09:41:36.764Z,28.29
2019-04-22T09:44:02.597Z,27.85
2019-04-22T09:46:34.565Z,28.42
2019-04-22T09:49:06.938Z,28.17
2019-04-22T09:51:30.769Z,28.01
2019-04-22T09:54:08.888Z,27.86
2019-04-22T09:56:31.574Z,26.49
2019-04-22T09:59:02.155Z,26.56
2019-04-22T10:04:00.978Z,26.82
2019-04-22T10:06:35.428Z,26.92
2019-04-22T10:09:29.862Z,27.29
2019-04-22T10:14:05.766Z,26.37
2019-04-22T10:19:04.672Z,25.98
2019-04-22T10:21:40.593Z,26.88
2019-04-22T10:26:39.824Z,25.70
2019-04-22T10:31:37.049Z,26.25
2019-04-22T10:33:58.811Z,25.76
2019-04-22T10:36:13.157Z,25.77
2019-04-22T10:38:42.232Z,25.64
2019-04-22T10:41:12.227Z,25.91
2019-04-22T10:43:41.302Z,25.98
2019-04-22T10:46:10.528Z,25.45
2019-04-22T10:48:40.125Z,25.64
2019-04-22T10:51:08.909Z,25.30
2019-04-22T10:53:37.589Z,25.14
2019-04-22T10:56:07.192Z,24.85
2019-04-22T10:58:35.823Z,24.63
2019-04-22T11:01:05.324Z,24.86
2019-04-22T11:03:35.246Z,25.06
2019-04-22T11:06:05.497Z,25.19
2019-04-22T11:08:44.457Z,24.93
2019-04-22T11:11:18.931Z,25.56
2019-04-22T11:13:35.952Z,25.19
2019-04-22T11:16:05.466Z,25.10
2019-04-22T11:18:35.681Z,25.26
2019-04-22T11:21:05.410Z,24.83
2019-04-22T11:23:34.431Z,24.31
2019-04-22T11:26:03.916Z,24.79
2019-04-22T11:28:33.886Z,25.10
2019-04-22T11:31:02.782Z,24.45
2019-04-22T11:33:32.266Z,24.86
2019-04-22T11:36:01.978Z,24.50
2019-04-22T11:38:31.022Z,24.70
2019-04-22T11:41:01.385Z,24.37
2019-04-22T11:43:30.472Z,23.80
2019-04-22T11:45:59.559Z,24.43
2019-04-22T11:48:29.195Z,24.15
2019-04-22T11:50:58.033Z,24.12
2019-04-22T11:53:27.048Z,25.03
2019-04-22T11:55:55.684Z,24.83
2019-04-22T11:58:24.684Z,25.39
2019-04-22T12:00:55.164Z,25.28
2019-04-22T12:03:25.128Z,25.58
2019-04-22T12:05:55.454Z,25.43
2019-04-22T12:08:25.020Z,25.54
2019-04-22T12:10:58.277Z,25.72
2019-04-22T12:13:26.024Z,25.84
2019-04-22T12:15:55.466Z,25.50
2019-04-22T12:18:24.909Z,25.32
2019-04-22T12:20:55.216Z,24.90
2019-04-22T12:23:25.153Z,25.21
2019-04-22T12:26:02.090Z,25.38
2019-04-22T12:28:24.723Z,24.55
2019-04-22T12:30:53.586Z,24.30
2019-04-22T12:33:23.462Z,24.67
2019-04-22T12:35:52.778Z,24.67
2019-04-22T12:38:24.074Z,25.10
2019-04-22T12:40:58.508Z,24.89
2019-04-22T12:43:25.696Z,24.49
2019-04-22T12:45:54.321Z,24.01
2019-04-22T12:48:23.270Z,24.46
2019-04-22T12:50:54.342Z,24.63
2019-04-22T12:53:25.712Z,24.48
2019-04-22T12:55:55.155Z,24.91
2019-04-22T12:58:23.462Z,25.41
2019-04-22T13:00:52.828Z,24.92
2019-04-22T13:03:22.333Z,25.12
2019-04-22T13:05:51.480Z,25.19
2019-04-22T13:08:20.151Z,24.83
2019-04-22T13:10:55.560Z,24.97
2019-04-22T13:13:19.067Z,25.07
2019-04-22T13:15:48.943Z,25.54
2019-04-22T13:18:27.643Z,24.98
2019-04-22T13:20:48.669Z,25.22
2019-04-22T13:23:18.105Z,24.86
2019-04-22T13:25:47.155Z,25.02
2019-04-22T13:28:15.878Z,25.14
2019-04-22T13:30:44.469Z,25.14
2019-04-22T13:33:14.670Z,25.28
2019-04-22T13:35:45.677Z,25.64
2019-04-22T13:38:15.186Z,25.70
2019-04-22T13:41:00.640Z,25.68
2019-04-22T13:43:16.483Z,25.87
2019-04-22T13:45:47.739Z,26.16
2019-04-22T13:48:33.138Z,26.48
2019-04-22T13:51:16.133Z,26.89
2019-04-22T13:56:14.917Z,25.98
2019-04-22T13:58:37.136Z,26.23
2019-04-22T14:00:52.224Z,26.72
2019-04-22T14:03:24.541Z,26.78
2019-04-22T14:05:58.683Z,26.97
2019-04-22T14:08:29.185Z,26.74
2019-04-22T14:11:13.167Z,27.25
2019-04-22T14:13:30.060Z,27.32
2019-04-22T14:16:01.376Z,27.20
2019-04-22T14:18:39.148Z,27.59
2019-04-22T14:21:12.533Z,27.00
2019-04-22T14:23:46.783Z,26.80
2019-04-22T14:26:15.568Z,27.03
2019-04-22T14:28:48.144Z,27.41
2019-04-22T14:31:18.172Z,27.53
2019-04-22T14:33:53.019Z,27.81
2019-04-22T14:36:17.510Z,28.03
2019-04-22T14:38:50.155Z,27.55
2019-04-22T14:41:36.050Z,27.85
2019-04-22T14:46:49.346Z,27.78
2019-04-22T14:49:21.542Z,27.69
2019-04-22T14:51:53.351Z,27.66
2019-04-22T14:54:13.842Z,27.91
2019-04-22T14:56:34.196Z,27.84
2019-04-22T14:59:04.990Z,28.04
2019-04-22T15:01:41.416Z,27.87
2019-04-22T15:04:11.004Z,27.74
2019-04-22T15:06:40.156Z,28.18
2019-04-22T15:09:10.362Z,28.47
2019-04-22T15:11:52.549Z,28.41
2019-04-22T15:14:11.632Z,28.64
2019-04-22T15:17:00.770Z,28.65
2019-04-22T15:19:31.784Z,29.11
2019-04-22T15:22:10.452Z,29.34
2019-04-22T15:24:40.601Z,29.35
2019-04-22T15:27:10.562Z,29.35
2019-04-22T15:29:39.420Z,29.47
2019-04-22T15:32:09.351Z,29.22
2019-04-22T15:34:39.508Z,29.14
2019-04-22T15:37:08.475Z,29.08
2019-04-22T15:39:41.422Z,29.26
2019-04-22T15:42:18.350Z,29.22
2019-04-22T15:44:44.075Z,29.07
2019-04-22T15:47:13.239Z,29.56
2019-04-22T15:49:42.298Z,29.87
2019-04-22T15:52:12.393Z,30.18
2019-04-22T15:54:41.602Z,29.95
2019-04-22T15:57:10.827Z,30.26
2019-04-22T15:59:57.816Z,30.43
2019-04-22T16:02:11.671Z,30.33
2019-04-22T16:04:41.121Z,30.03
2019-04-22T16:07:10.833Z,30.08
2019-04-22T16:09:39.683Z,29.89
2019-04-22T16:12:16.274Z,29.91
2019-04-22T16:14:43.746Z,30.11
2019-04-22T16:17:10.477Z,29.57
2019-04-22T16:19:39.368Z,29.33
2019-04-22T16:22:13.445Z,28.88
2019-04-22T16:24:47.913Z,28.60
2019-04-22T16:27:18.645Z,28.80
2019-04-22T16:29:47.513Z,28.61
2019-04-22T16:32:16.281Z,29.50
2019-04-22T16:34:45.807Z,29.44
2019-04-22T16:37:14.804Z,29.65
2019-04-22T16:39:48.523Z,29.86
2019-04-22T16:42:27.886Z,29.88
2019-04-22T16:44:49.317Z,29.74
2019-04-22T16:47:19.563Z,29.69
2019-04-22T16:49:49.758Z,29.70
2019-04-22T16:52:18.455Z,29.83
2019-04-22T16:54:47.090Z,29.76
2019-04-22T16:57:15.911Z,30.38
2019-04-22T16:59:44.805Z,30.44
2019-04-22T17:02:16.706Z,30.66
2019-04-22T17:04:50.859Z,31.22
2019-04-22T17:07:20.571Z,31.34
2019-04-22T17:09:50.008Z,31.19
2019-04-22T17:12:19.583Z,31.40
2019-04-22T17:14:55.950Z,31.83
2019-04-22T17:17:20.211Z,31.68
2019-04-22T17:20:07.283Z,31.70
2019-04-22T17:22:37.619Z,31.97
2019-04-22T17:25:08.682Z,32.06
2019-04-22T17:27:37.563Z,32.53
2019-04-22T17:30:08.545Z,32.82
2019-04-22T17:32:37.764Z,33.03
2019-04-22T17:35:08.318Z,33.22
2019-04-22T17:37:39.124Z,32.90
2019-04-22T17:40:24.377Z,32.56
2019-04-22T17:43:02.065Z,32.52
2019-04-22T17:45:57.259Z,32.50
2019-04-22T17:48:30.565Z,32.61
2019-04-22T17:51:10.518Z,32.72
2019-04-22T17:53:40.282Z,33.54
2019-04-22T17:56:08.662Z,33.06
2019-04-22T17:58:36.381Z,33.25
2019-04-22T18:01:21.975Z,32.76
2019-04-22T18:03:33.839Z,32.67
2019-04-22T18:06:03.693Z,33.02
2019-04-22T18:08:50.754Z,33.22
2019-04-22T18:11:30.150Z,33.39
2019-04-22T18:13:51.618Z,33.31
2019-04-22T18:16:25.781Z,33.10
2019-04-22T18:18:52.857Z,33.16
2019-04-22T18:24:21.709Z,32.75
2019-04-22T18:27:07.202Z,32.63
2019-04-22T18:29:33.085Z,32.51
2019-04-22T18:31:54.512Z,32.32
2019-04-22T18:34:25.517Z,32.10
2019-04-22T18:36:58.943Z,31.92
2019-04-22T18:39:52.696Z,31.65
2019-04-22T18:42:03.148Z,31.69
2019-04-22T18:44:35.163Z,31.43
2019-04-22T18:47:01.276Z,31.07
2019-04-22T18:49:40.596Z,31.01
2019-04-22T18:52:18.068Z,31.03
2019-04-22T18:55:02.636Z,30.68
2019-04-22T18:57:46.525Z,30.41
2019-04-22T19:00:09.125Z,30.53
2019-04-22T19:02:50.820Z,30.51
2019-04-22T19:05:26.482Z,30.45
2019-04-22T19:08:12.414Z,30.27
2019-04-22T19:10:46.140Z,30.42
2019-04-22T19:13:34.853Z,30.31
2019-04-22T19:15:53.128Z,30.45
2019-04-22T19:18:18.715Z,30.67
2019-04-22T19:20:42.656Z,30.72
2019-04-22T19:23:19.373Z,30.98
2019-04-22T19:25:42.350Z,31.10
2019-04-22T19:28:28.082Z,31.20
2019-04-22T19:30:59.438Z,31.42
2019-04-22T19:33:25.093Z,31.59
2019-04-22T19:35:51.975Z,31.67
2019-04-22T19:38:19.146Z,31.63
2019-04-22T19:43:33.178Z,31.59
2019-04-22T19:46:02.000Z,31.62
2019-04-22T19:48:43.528Z,31.42
2019-04-22T19:51:08.869Z,31.45
2019-04-22T19:53:40.691Z,31.47
2019-04-22T19:56:06.119Z,31.38
2019-04-22T19:58:37.375Z,31.45
2019-04-22T20:01:15.072Z,31.34
2019-04-22T20:04:06.359Z,31.49
2019-04-22T20:06:31.558Z,31.42
2019-04-22T20:09:01.846Z,31.53
2019-04-22T20:11:35.333Z,31.56
2019-04-22T20:14:07.483Z,31.69
2019-04-22T20:16:32.435Z,31.79
2019-04-22T20:19:12.370Z,31.74
2019-04-22T20:21:40.608Z,31.87
2019-04-22T20:23:59.175Z,32.07
2019-04-22T20:26:45.422Z,32.30
2019-04-22T20:29:13.254Z,32.52
2019-04-22T20:31:45.318Z,32.57
2019-04-22T20:34:17.334Z,32.76
2019-04-22T20:37:01.480Z,32.99
2019-04-22T20:39:10.774Z,33.20
2019-04-22T20:41:43.268Z,33.36
2019-04-22T20:44:28.104Z,33.64
2019-04-22T20:46:49.116Z,33.99
2019-04-22T20:49:29.296Z,34.25
2019-04-22T20:52:04.810Z,34.53
2019-04-22T20:54:22.990Z,34.69
2019-04-22T20:56:50.937Z,35.05
2019-04-22T20:59:25.748Z,35.30
2019-04-22T21:01:55.148Z,35.63
2019-04-22T21:04:19.590Z,35.89
2019-04-22T21:06:51.522Z,36.36
2019-04-22T21:09:27.293Z,36.46
2019-04-22T21:11:57.789Z,36.74
2019-04-22T21:14:27.458Z,37.19
2019-04-22T21:17:17.335Z,37.52
2019-04-22T21:19:58.353Z,37.90
2019-04-22T21:22:24.241Z,38.23
2019-04-22T21:24:49.250Z,38.72
2019-04-22T21:27:32.502Z,38.84
2019-04-22T21:29:48.495Z,39.08
2019-04-22T21:32:25.176Z,39.33
2019-04-22T21:34:59.901Z,39.75
2019-04-22T21:37:27.992Z,40.13
2019-04-22T21:39:46.617Z,40.50
2019-04-22T21:42:24.568Z,40.80
2019-04-22T21:44:49.961Z,41.13
2019-04-22T21:47:30.083Z,41.40
2019-04-22T21:50:08.864Z,41.58
2019-04-22T21:52:27.835Z,41.84
2019-04-22T21:55:00.825Z,42.43
2019-04-22T21:57:54.682Z,42.49
2019-04-22T22:00:29.722Z,42.70
2019-04-22T22:02:50.308Z,43.17
2019-04-22T22:05:08.310Z,43.44
2019-04-22T22:07:29.027Z,43.75
2019-04-22T22:10:16.531Z,43.86
2019-04-22T22:12:48.868Z,44.12
2019-04-22T22:15:13.327Z,44.40
2019-04-22T22:17:42.959Z,44.61
2019-04-22T22:20:13.705Z,44.95
2019-04-22T22:22:55.111Z,45.10
2019-04-22T22:25:21.272Z,45.33
2019-04-22T22:27:44.793Z,45.32
2019-04-22T22:30:36.902Z,45.62
2019-04-22T22:32:47.468Z,45.76
2019-04-22T22:35:20.585Z,45.96
2019-04-22T22:37:51.757Z,46.04
2019-04-22T22:40:07.495Z,46.22
2019-04-22T22:42:36.953Z,46.29
2019-04-22T22:45:10.572Z,46.49
2019-04-22T22:47:44.572Z,46.54
2019-04-22T22:50:20.678Z,46.53
2019-04-22T22:52:58.978Z,46.58
2019-04-22T22:55:21.998Z,46.47
2019-04-22T22:57:54.124Z,46.55
2019-04-22T23:00:19.411Z,46.45
2019-04-22T23:03:06.988Z,46.52
2019-04-22T23:05:23.905Z,46.66
2019-04-22T23:08:00.775Z,46.52
2019-04-22T23:10:25.280Z,46.61
2019-04-22T23:13:05.320Z,46.46
2019-04-22T23:15:25.370Z,46.51
2019-04-22T23:17:38.934Z,46.58
2019-04-22T23:20:09.765Z,46.56
2019-04-22T23:23:03.852Z,46.61
2019-04-22T23:25:53.586Z,46.59
2019-04-22T23:28:12.552Z,46.62
2019-04-22T23:30:51.696Z,46.62
2019-04-22T23:33:42.508Z,46.73
2019-04-22T23:36:27.927Z,46.72
2019-04-22T23:39:12.199Z,46.86
2019-04-22T23:41:48.565Z,46.87
2019-04-22T23:44:14.373Z,46.91
2019-04-22T23:46:45.299Z,47.07
2019-04-22T23:49:11.792Z,47.10
2019-04-22T23:51:55.387Z,47.20
2019-04-22T23:54:20.431Z,47.42
2019-04-22T23:56:43.582Z,47.37
2019-04-22T23:59:42.769Z,47.40
